Time;durP1;ratioP1;P1;durP2;ratioP2;P2;SDS_P1;SDS_P2;PMS_P1;PMS_P2;Temp;Humidity;BMP_temperature;BMP_pressure;BME280_temperature;BME280_humidity;BME280_pressure;Samples;Min_cycle;Max_cycle;Signal;HPM_P1;HPM_P2
2023/12/22 00:00:27;;;;;;;3.20;1.33;;;7.70;84.60;;;;;;5006401;28;20224;-72
2023/12/22 00:02:52;;;;;;;10.13;2.20;;;7.70;85.20;;;;;;5016260;28;20217;-74
2023/12/22 00:05:18;;;;;;;3.67;1.50;;;7.70;84.70;;;;;;5014742;28;20182;-72
2023/12/22 00:07:44;;;;;;;6.13;1.50;;;7.70;84.90;;;;;;5023983;28;20192;-74
2023/12/22 00:10:10;;;;;;;4.57;1.80;;;7.70;84.70;;;;;;5011454;28;20972;-73
2023/12/22 00:12:35;;;;;;;4.30;1.90;;;7.80;85.00;;;;;;5019392;28;20223;-73
2023/12/22 00:15:01;;;;;;;6.70;1.80;;;7.90;85.20;;;;;;5005788;28;20254;-73
2023/12/22 00:17:26;;;;;;;5.90;2.43;;;7.90;85.60;;;;;;5007642;28;20269;-73
2023/12/22 00:19:52;;;;;;;2.80;1.63;;;8.00;85.90;;;;;;5011284;28;20210;-72
2023/12/22 00:22:17;;;;;;;3.43;1.80;;;8.10;86.00;;;;;;5021385;28;20182;-72
2023/12/22 00:24:43;;;;;;;5.43;2.50;;;8.20;86.00;;;;;;5017273;28;20581;-72
2023/12/22 00:27:09;;;;;;;3.43;2.03;;;8.20;86.00;;;;;;5015970;28;20202;-72
2023/12/22 00:29:37;;;;;;;8.87;2.23;;;8.20;86.00;;;;;;5015203;28;20182;-71
2023/12/22 00:32:02;;;;;;;1.83;1.23;;;8.20;86.00;;;;;;5020076;28;20196;-73
2023/12/22 00:34:28;;;;;;;4.00;1.70;;;8.30;86.00;;;;;;5015737;28;20409;-73
2023/12/22 00:36:53;;;;;;;5.33;1.83;;;8.30;85.30;;;;;;5017114;28;20468;-73
2023/12/22 00:39:19;;;;;;;7.53;2.00;;;8.40;83.80;;;;;;5012711;28;20249;-74
2023/12/22 00:41:45;;;;;;;5.87;1.97;;;8.40;83.70;;;;;;5013664;28;20626;-74
2023/12/22 00:44:10;;;;;;;5.47;2.93;;;8.40;83.30;;;;;;5016391;28;20216;-73
2023/12/22 00:46:36;;;;;;;5.37;2.27;;;8.40;83.70;;;;;;5018415;28;20178;-74
2023/12/22 00:49:01;;;;;;;7.10;2.40;;;8.30;84.70;;;;;;5014048;28;20190;-74
2023/12/22 00:51:27;;;;;;;2.70;1.60;;;8.20;85.50;;;;;;5010594;28;20213;-73
2023/12/22 00:53:52;;;;;;;4.77;2.07;;;7.90;86.00;;;;;;5018916;28;20604;-71
2023/12/22 00:56:18;;;;;;;1.90;1.40;;;7.70;86.20;;;;;;5014390;28;20208;-72
2023/12/22 00:58:43;;;;;;;6.23;2.20;;;7.60;86.80;;;;;;5012334;28;20222;-73
2023/12/22 01:01:09;;;;;;;5.00;2.10;;;7.60;87.30;;;;;;5007925;28;20222;-73
2023/12/22 01:03:35;;;;;;;6.07;1.90;;;7.60;87.40;;;;;;5007723;28;20186;-72
2023/12/22 01:06:01;;;;;;;7.77;2.03;;;7.60;87.10;;;;;;5013788;28;20444;-72
2023/12/22 01:08:26;;;;;;;3.87;2.13;;;7.60;87.10;;;;;;5011133;28;20191;-73
2023/12/22 01:10:52;;;;;;;5.67;2.27;;;7.60;87.10;;;;;;5008589;28;20946;-73
2023/12/22 01:13:17;;;;;;;3.33;1.60;;;7.60;87.30;;;;;;5017683;28;20190;-74
2023/12/22 01:15:43;;;;;;;3.50;1.93;;;7.70;87.40;;;;;;5015389;28;20181;-72
2023/12/22 01:18:10;;;;;;;6.30;2.27;;;7.70;87.40;;;;;;5017387;28;20212;-72
2023/12/22 01:20:35;;;;;;;2.90;1.93;;;7.70;87.00;;;;;;5011269;28;20466;-72
2023/12/22 01:23:01;;;;;;;5.33;2.00;;;7.70;86.90;;;;;;5016736;28;20445;-71
2023/12/22 01:25:27;;;;;;;5.83;1.93;;;7.80;86.60;;;;;;5014720;28;20280;-72
2023/12/22 01:27:53;;;;;;;5.13;2.33;;;7.90;84.10;;;;;;5024371;28;20232;-72
2023/12/22 01:30:18;;;;;;;3.10;1.70;;;7.90;84.30;;;;;;5007758;28;20205;-72
2023/12/22 01:32:44;;;;;;;5.27;2.17;;;8.00;84.10;;;;;;5019409;28;20183;-71
2023/12/22 01:35:10;;;;;;;4.93;2.00;;;8.00;83.60;;;;;;5015706;28;20429;-71
2023/12/22 01:37:38;;;;;;;3.90;1.33;;;8.00;83.00;;;;;;5010923;28;20221;-70
2023/12/22 01:40:05;;;;;;;2.57;1.40;;;8.10;83.00;;;;;;5009338;28;20206;-73
2023/12/22 01:42:31;;;;;;;6.03;1.43;;;8.10;81.90;;;;;;5013285;28;20461;-72
2023/12/22 01:44:56;;;;;;;2.30;1.03;;;8.10;81.50;;;;;;5015701;28;20462;-72
2023/12/22 01:47:22;;;;;;;4.83;1.40;;;8.20;80.80;;;;;;5006111;28;20252;-72
2023/12/22 01:49:48;;;;;;;4.10;1.30;;;8.20;79.90;;;;;;5009360;28;20206;-75
2023/12/22 01:52:15;;;;;;;2.50;1.17;;;8.20;78.70;;;;;;5011513;28;20928;-73
2023/12/22 01:54:41;;;;;;;4.30;2.03;;;8.20;78.30;;;;;;5012993;28;20424;-74
2023/12/22 01:57:07;;;;;;;2.93;1.10;;;8.30;77.80;;;;;;5003286;28;20973;-71
2023/12/22 01:59:34;;;;;;;6.17;1.20;;;8.30;77.40;;;;;;5011122;28;20419;-72
2023/12/22 02:02:02;;;;;;;3.93;1.00;;;8.30;77.30;;;;;;5003105;28;20500;-72
2023/12/22 02:04:30;;;;;;;2.50;0.90;;;8.30;76.40;;;;;;5019263;28;20442;-72
2023/12/22 02:06:58;;;;;;;2.03;1.10;;;8.30;77.10;;;;;;5012152;28;20429;-72
2023/12/22 02:09:23;;;;;;;1.87;1.20;;;8.30;76.80;;;;;;5019328;28;20426;-71
2023/12/22 02:11:49;;;;;;;4.30;1.30;;;8.20;76.80;;;;;;5011383;28;20787;-73
2023/12/22 02:14:15;;;;;;;4.30;1.23;;;8.30;76.40;;;;;;5016763;28;20268;-74
2023/12/22 02:16:44;;;;;;;4.97;1.20;;;8.20;76.80;;;;;;5014980;28;20209;-71
2023/12/22 02:19:42;;;;;;;3.70;0.90;;;8.20;76.70;;;;;;5023137;28;20459;-72
2023/12/22 02:22:08;;;;;;;3.57;1.57;;;8.20;76.80;;;;;;5016189;28;20515;-72
2023/12/22 02:24:34;;;;;;;4.30;1.17;;;8.20;76.80;;;;;;5022859;28;20424;-73
2023/12/22 02:27:07;;;;;;;5.57;1.20;;;8.20;76.10;;;;;;5016311;28;20412;-70
2023/12/22 02:29:40;;;;;;;1.87;1.07;;;8.20;76.20;;;;;;5016757;28;20430;-70
2023/12/22 02:32:16;;;;;;;1.80;1.10;;;8.20;76.50;;;;;;5022870;28;20432;-72
2023/12/22 02:34:46;;;;;;;1.80;1.10;;;8.20;76.10;;;;;;5011191;28;20435;-71
2023/12/22 02:37:12;;;;;;;3.40;1.33;;;8.20;76.10;;;;;;5018523;28;20472;-71
2023/12/22 02:39:39;;;;;;;2.70;1.13;;;8.20;76.10;;;;;;5009100;28;20456;-72
2023/12/22 02:42:05;;;;;;;3.67;1.20;;;8.20;75.80;;;;;;5016684;28;20415;-71
2023/12/22 02:44:31;;;;;;;2.47;1.33;;;8.30;75.80;;;;;;5018379;28;20447;-71
2023/12/22 02:46:58;;;;;;;4.07;1.60;;;8.30;75.70;;;;;;5016544;28;20538;-73
2023/12/22 02:49:24;;;;;;;6.10;2.00;;;8.30;74.90;;;;;;5013569;28;21006;-73
2023/12/22 02:51:49;;;;;;;5.17;1.20;;;8.30;74.80;;;;;;5022142;28;20964;-72
2023/12/22 02:54:15;;;;;;;4.40;1.50;;;8.40;74.60;;;;;;5014176;28;20181;-73
2023/12/22 02:56:42;;;;;;;8.00;1.60;;;8.40;74.60;;;;;;5020479;28;20213;-73
2023/12/22 02:59:09;;;;;;;8.67;1.40;;;8.40;75.10;;;;;;5012771;28;20198;-74
2023/12/22 03:01:35;;;;;;;3.73;1.43;;;8.40;74.30;;;;;;5015033;28;21023;-74
2023/12/22 03:04:00;;;;;;;4.03;1.30;;;8.40;74.50;;;;;;5012172;28;20461;-74
2023/12/22 03:06:26;;;;;;;8.00;2.77;;;8.50;73.90;;;;;;5020827;28;20190;-73
2023/12/22 03:08:51;;;;;;;2.67;1.50;;;8.50;73.50;;;;;;5012744;28;20190;-72
2023/12/22 03:11:17;;;;;;;2.90;1.40;;;8.50;73.50;;;;;;5018235;28;20210;-73
2023/12/22 03:13:42;;;;;;;2.20;1.23;;;8.50;73.60;;;;;;5015202;28;20722;-71
2023/12/22 03:16:09;;;;;;;5.63;1.77;;;8.50;73.90;;;;;;5020917;28;20178;-72
2023/12/22 03:18:34;;;;;;;11.53;1.90;;;8.50;73.90;;;;;;5020157;28;20239;-72
2023/12/22 03:21:00;;;;;;;3.97;1.63;;;8.60;73.00;;;;;;5016885;28;20456;-73
2023/12/22 03:23:25;;;;;;;4.10;1.30;;;8.60;73.00;;;;;;5020075;28;20271;-71
2023/12/22 03:25:51;;;;;;;3.40;1.30;;;8.60;72.90;;;;;;5021984;28;20198;-73
2023/12/22 03:28:16;;;;;;;7.60;1.50;;;8.60;73.00;;;;;;5017381;28;20236;-73
2023/12/22 03:30:42;;;;;;;8.60;1.90;;;8.70;71.80;;;;;;5014722;28;20213;-71
2023/12/22 03:33:07;;;;;;;2.90;1.30;;;8.70;71.70;;;;;;5018657;28;20252;-73
2023/12/22 03:35:33;;;;;;;2.60;1.37;;;8.70;71.30;;;;;;5016349;28;20182;-71
2023/12/22 03:37:59;;;;;;;4.77;1.17;;;8.70;71.30;;;;;;5014665;28;20214;-72
2023/12/22 03:40:24;;;;;;;5.80;2.17;;;8.70;71.30;;;;;;5013785;28;20214;-72
2023/12/22 03:42:50;;;;;;;4.33;1.30;;;8.80;71.10;;;;;;5019663;28;20320;-72
2023/12/22 03:45:15;;;;;;;3.97;1.47;;;8.80;71.10;;;;;;5012226;28;20196;-71
2023/12/22 03:47:41;;;;;;;2.67;1.57;;;8.80;71.30;;;;;;5019774;28;20208;-71
2023/12/22 03:50:07;;;;;;;3.90;1.20;;;8.70;71.40;;;;;;5009132;28;20206;-71
2023/12/22 03:52:32;;;;;;;5.77;1.73;;;8.70;71.70;;;;;;5023446;28;20187;-70
2023/12/22 03:54:58;;;;;;;6.90;1.70;;;8.70;71.60;;;;;;5020020;28;20474;-73
2023/12/22 03:57:23;;;;;;;4.40;1.40;;;8.70;71.70;;;;;;5025739;28;20268;-71
2023/12/22 03:59:49;;;;;;;6.30;1.60;;;8.70;73.00;;;;;;5013110;28;21176;-70
2023/12/22 04:02:15;;;;;;;11.70;1.80;;;8.50;75.50;;;;;;5014585;28;20220;-72
2023/12/22 04:04:40;;;;;;;7.77;1.70;;;8.20;77.70;;;;;;5013057;28;20212;-72
2023/12/22 04:07:06;;;;;;;4.97;1.73;;;8.00;78.90;;;;;;5010520;28;20304;-73
2023/12/22 04:09:31;;;;;;;4.77;1.60;;;7.90;79.60;;;;;;5014133;28;20182;-74
2023/12/22 04:11:57;;;;;;;5.43;1.33;;;7.80;80.30;;;;;;5022882;28;20655;-74
2023/12/22 04:14:23;;;;;;;6.97;2.27;;;7.70;80.50;;;;;;5024876;28;20273;-74
2023/12/22 04:16:48;;;;;;;4.87;1.60;;;7.70;81.70;;;;;;5013662;28;20209;-73
2023/12/22 04:19:14;;;;;;;5.30;1.60;;;7.60;82.10;;;;;;5018709;28;20189;-74
2023/12/22 04:21:39;;;;;;;9.70;2.37;;;7.50;82.80;;;;;;5010985;28;20214;-75
2023/12/22 04:24:05;;;;;;;3.60;1.43;;;7.50;83.30;;;;;;5019361;28;20185;-72
2023/12/22 04:26:31;;;;;;;3.90;1.70;;;7.40;83.70;;;;;;5019652;28;20537;-74
2023/12/22 04:28:56;;;;;;;5.20;1.60;;;7.40;83.70;;;;;;5019005;28;20443;-71
2023/12/22 04:31:22;;;;;;;6.60;1.73;;;7.40;84.10;;;;;;5010151;28;20213;-74
2023/12/22 04:33:48;;;;;;;3.67;1.80;;;7.50;82.80;;;;;;5022263;28;20607;-72
2023/12/22 04:36:13;;;;;;;7.10;1.83;;;7.50;82.80;;;;;;5012237;28;20275;-73
2023/12/22 04:38:40;;;;;;;5.77;1.70;;;7.50;83.10;;;;;;5021002;28;20684;-71
2023/12/22 04:41:06;;;;;;;7.43;1.60;;;7.70;81.20;;;;;;5010597;28;20206;-74
2023/12/22 04:43:31;;;;;;;4.83;1.50;;;7.70;81.40;;;;;;5016906;28;20428;-73
2023/12/22 04:45:57;;;;;;;4.93;1.20;;;7.80;80.00;;;;;;5016547;28;20182;-73
2023/12/22 04:48:23;;;;;;;2.50;1.30;;;7.90;79.50;;;;;;5023480;28;20243;-72
2023/12/22 04:50:48;;;;;;;3.20;1.30;;;7.90;79.20;;;;;;5007468;28;20209;-72
2023/12/22 04:53:14;;;;;;;3.03;1.40;;;7.90;78.10;;;;;;5020192;28;20272;-73
2023/12/22 04:55:39;;;;;;;5.17;1.23;;;8.00;77.70;;;;;;5011965;28;20182;-74
2023/12/22 04:58:05;;;;;;;8.20;1.80;;;8.10;76.70;;;;;;5019398;28;20213;-73
2023/12/22 05:00:31;;;;;;;4.20;1.37;;;8.20;75.40;;;;;;5003787;28;20216;-74
2023/12/22 05:02:56;;;;;;;4.20;1.40;;;8.30;74.80;;;;;;5015721;28;20263;-73
2023/12/22 05:05:22;;;;;;;3.07;1.20;;;8.30;74.30;;;;;;5010590;28;20296;-73
2023/12/22 05:07:47;;;;;;;2.40;1.10;;;8.30;74.60;;;;;;5017205;28;20184;-74
2023/12/22 05:10:13;;;;;;;5.33;1.30;;;8.30;74.50;;;;;;5008144;28;20205;-72
2023/12/22 05:12:38;;;;;;;4.67;1.67;;;8.40;72.90;;;;;;5012121;28;20316;-73
2023/12/22 05:15:04;;;;;;;4.60;1.40;;;8.50;73.60;;;;;;5015405;28;20186;-75
2023/12/22 05:17:30;;;;;;;10.63;1.70;;;8.50;73.60;;;;;;5012470;28;20681;-75
2023/12/22 05:19:55;;;;;;;3.00;1.63;;;8.50;73.50;;;;;;5008218;28;20457;-73
2023/12/22 05:22:21;;;;;;;8.53;2.27;;;8.40;74.30;;;;;;5016518;28;20182;-72
2023/12/22 05:24:47;;;;;;;4.40;1.70;;;8.40;74.20;;;;;;5010843;28;20189;-73
2023/12/22 05:27:12;;;;;;;6.37;2.10;;;8.40;73.70;;;;;;5010369;28;20174;-72
2023/12/22 05:29:38;;;;;;;14.73;2.03;;;8.40;73.70;;;;;;5006138;28;20197;-73
2023/12/22 05:32:04;;;;;;;8.27;2.10;;;8.40;74.00;;;;;;5003811;28;20193;-71
2023/12/22 05:34:31;;;;;;;8.97;1.87;;;8.50;74.00;;;;;;5017107;28;20193;-73
2023/12/22 05:36:56;;;;;;;6.03;2.77;;;8.50;73.70;;;;;;5013425;28;20563;-73
2023/12/22 05:39:22;;;;;;;10.50;2.13;;;8.40;74.90;;;;;;5015731;28;20595;-73
2023/12/22 05:41:48;;;;;;;8.83;2.13;;;8.30;76.20;;;;;;5008868;28;20204;-74
2023/12/22 05:44:13;;;;;;;4.50;2.17;;;8.10;77.80;;;;;;5013528;28;20557;-72
2023/12/22 05:46:39;;;;;;;9.43;2.60;;;7.90;78.40;;;;;;5016421;28;20188;-73
2023/12/22 05:49:05;;;;;;;13.57;2.40;;;7.90;78.90;;;;;;5021286;28;20711;-74
2023/12/22 05:51:37;;;;;;;5.07;1.87;;;7.90;78.90;;;;;;5012247;28;20237;-74
2023/12/22 05:54:05;;;;;;;4.40;2.30;;;8.00;77.40;;;;;;5025961;28;20565;-73
2023/12/22 05:56:30;;;;;;;10.97;2.10;;;8.10;75.80;;;;;;5008826;28;20453;-72
2023/12/22 05:58:56;;;;;;;7.20;2.23;;;8.20;75.50;;;;;;5018451;28;20541;-73
2023/12/22 06:01:21;;;;;;;9.83;2.57;;;8.30;75.10;;;;;;5007511;28;20210;-74
2023/12/22 06:03:48;;;;;;;6.87;1.70;;;8.40;73.70;;;;;;5019070;28;20264;-72
2023/12/22 06:06:14;;;;;;;6.57;1.73;;;8.60;72.60;;;;;;5009660;28;20178;-73
2023/12/22 06:08:41;;;;;;;7.63;2.47;;;8.60;72.70;;;;;;5023706;28;20447;-72
2023/12/22 06:11:07;;;;;;;10.00;2.47;;;8.70;71.60;;;;;;5004341;28;20352;-73
2023/12/22 06:13:32;;;;;;;6.07;2.30;;;8.70;71.60;;;;;;5028619;28;20935;-73
2023/12/22 06:15:58;;;;;;;6.93;1.93;;;8.70;72.10;;;;;;5020479;28;20561;-72
2023/12/22 06:18:23;;;;;;;9.80;2.47;;;8.80;71.70;;;;;;5018970;28;20558;-73
2023/12/22 06:20:49;;;;;;;8.30;3.10;;;8.80;72.10;;;;;;5011687;28;20292;-72
2023/12/22 06:23:15;;;;;;;8.73;2.13;;;8.70;72.00;;;;;;5017929;28;20182;-72
2023/12/22 06:25:40;;;;;;;4.40;1.90;;;8.70;72.30;;;;;;5018636;28;20566;-72
2023/12/22 06:28:06;;;;;;;8.10;2.10;;;8.70;72.40;;;;;;5022730;28;20190;-72
2023/12/22 06:30:32;;;;;;;4.03;1.70;;;8.70;72.30;;;;;;5011872;28;20639;-74
2023/12/22 06:32:57;;;;;;;5.33;1.80;;;8.70;72.00;;;;;;5019559;28;20190;-72
2023/12/22 06:35:26;;;;;;;8.43;2.50;;;8.80;71.70;;;;;;5019505;28;20185;-74
2023/12/22 06:37:51;;;;;;;8.70;2.73;;;8.80;72.00;;;;;;5021754;28;20632;-72
2023/12/22 06:40:20;;;;;;;7.40;2.00;;;8.70;72.90;;;;;;5014034;28;20456;-73
2023/12/22 06:42:46;;;;;;;7.00;2.30;;;8.80;72.90;;;;;;5016744;28;20214;-74
2023/12/22 06:45:11;;;;;;;5.57;1.83;;;8.80;72.10;;;;;;5018599;28;20456;-72
2023/12/22 06:47:37;;;;;;;6.57;2.30;;;8.80;72.40;;;;;;5017073;28;20269;-73
2023/12/22 06:50:03;;;;;;;12.13;2.33;;;8.80;72.00;;;;;;5014322;28;20209;-73
2023/12/22 06:52:30;;;;;;;5.00;1.80;;;8.80;71.70;;;;;;5015439;28;20655;-72
2023/12/22 06:54:56;;;;;;;7.27;2.30;;;8.80;71.40;;;;;;5020265;28;20933;-73
2023/12/22 06:57:22;;;;;;;5.67;1.93;;;8.80;71.60;;;;;;5014184;28;20456;-72
2023/12/22 06:59:49;;;;;;;8.50;2.50;;;8.90;71.70;;;;;;5015964;28;20465;-72
2023/12/22 07:02:15;;;;;;;5.33;1.53;;;8.80;71.70;;;;;;5017362;28;20182;-75
2023/12/22 07:05:20;;;;;;;4.27;2.00;;;8.80;72.10;;;;;;5021494;28;20450;-72
2023/12/22 07:07:46;;;;;;;5.20;1.90;;;8.80;72.10;;;;;;5011247;28;20201;-73
2023/12/22 07:10:12;;;;;;;3.53;1.50;;;8.80;72.90;;;;;;5014693;28;20448;-73
2023/12/22 07:12:39;;;;;;;4.27;1.80;;;8.70;73.20;;;;;;5019135;28;20235;-74
2023/12/22 07:15:06;;;;;;;2.50;1.33;;;8.70;73.20;;;;;;5026074;28;21011;-75
2023/12/22 07:17:32;;;;;;;2.90;1.10;;;8.70;73.20;;;;;;5019585;28;20550;-75
2023/12/22 07:19:58;;;;;;;3.87;1.67;;;8.60;73.70;;;;;;5018572;28;20538;-73
2023/12/22 07:22:23;;;;;;;4.37;1.77;;;8.60;74.30;;;;;;5018106;28;20205;-75
2023/12/22 07:24:51;;;;;;;8.10;2.00;;;8.60;74.80;;;;;;5017700;28;20198;-73
2023/12/22 07:27:17;;;;;;;4.37;1.87;;;8.60;75.40;;;;;;5022717;28;20178;-72
2023/12/22 07:29:42;;;;;;;7.63;2.30;;;8.50;76.10;;;;;;5019168;28;20443;-72
2023/12/22 07:32:08;;;;;;;10.93;1.80;;;8.40;76.50;;;;;;5015611;28;20185;-72
2023/12/22 07:34:34;;;;;;;4.10;1.60;;;8.40;77.00;;;;;;5013167;28;20528;-72
2023/12/22 07:36:59;;;;;;;5.53;1.97;;;8.40;77.10;;;;;;5019294;28;20209;-72
2023/12/22 07:39:25;;;;;;;2.60;1.30;;;8.40;77.10;;;;;;5006669;28;20193;-75
2023/12/22 07:41:50;;;;;;;3.80;2.03;;;8.40;76.80;;;;;;5012475;28;20375;-73
2023/12/22 07:44:16;;;;;;;7.23;1.77;;;8.40;76.20;;;;;;5019825;28;20213;-74
2023/12/22 07:46:41;;;;;;;4.30;3.00;;;8.50;76.20;;;;;;5022718;28;20189;-73
2023/12/22 07:49:07;;;;;;;3.50;1.20;;;8.50;76.40;;;;;;5019474;28;20204;-72
2023/12/22 07:51:32;;;;;;;8.30;1.90;;;8.40;76.40;;;;;;5012456;28;20213;-74
2023/12/22 07:53:58;;;;;;;6.53;1.63;;;8.40;76.70;;;;;;5012756;28;20190;-73
2023/12/22 07:56:24;;;;;;;3.87;1.80;;;8.40;76.80;;;;;;5021591;28;20213;-74
2023/12/22 07:58:49;;;;;;;3.60;1.63;;;8.40;77.00;;;;;;5009733;28;20315;-78
2023/12/22 08:01:15;;;;;;;5.40;1.70;;;8.40;77.60;;;;;;5020234;28;20205;-73
2023/12/22 08:03:41;;;;;;;7.50;1.83;;;8.30;78.40;;;;;;5009830;28;20186;-74
2023/12/22 08:06:07;;;;;;;13.83;2.00;;;8.20;80.20;;;;;;5020361;28;20196;-75
2023/12/22 08:08:34;;;;;;;9.60;2.07;;;8.10;81.40;;;;;;5013543;28;20178;-74
2023/12/22 08:11:00;;;;;;;4.80;1.53;;;8.00;81.80;;;;;;5020573;28;20474;-73
2023/12/22 08:13:25;;;;;;;4.17;2.33;;;7.90;82.70;;;;;;5016956;28;20532;-75
2023/12/22 08:15:51;;;;;;;6.37;1.70;;;7.70;83.30;;;;;;5025708;28;20196;-74
2023/12/22 08:18:16;;;;;;;9.73;1.87;;;7.60;83.60;;;;;;5014840;28;20206;-74
2023/12/22 08:20:42;;;;;;;7.17;1.70;;;7.60;84.40;;;;;;5018676;28;20666;-75
2023/12/22 08:23:09;;;;;;;10.53;2.40;;;7.50;84.90;;;;;;5010623;28;20190;-74
2023/12/22 08:25:35;;;;;;;5.43;2.00;;;7.40;85.60;;;;;;5021431;28;20421;-74
2023/12/22 08:28:01;;;;;;;6.27;2.27;;;7.30;86.20;;;;;;5017385;28;20525;-75
2023/12/22 08:30:26;;;;;;;9.30;2.23;;;7.20;86.90;;;;;;5015627;28;20244;-73
2023/12/22 08:32:53;;;;;;;8.80;2.40;;;7.20;87.10;;;;;;5004955;28;20449;-73
2023/12/22 08:35:19;;;;;;;5.77;1.83;;;7.10;87.30;;;;;;5018421;28;20205;-74
2023/12/22 08:37:44;;;;;;;11.60;2.13;;;7.20;86.50;;;;;;5014832;28;20508;-74
2023/12/22 08:40:10;;;;;;;8.40;1.77;;;7.20;86.80;;;;;;5014529;28;20637;-74
2023/12/22 08:42:36;;;;;;;11.47;2.70;;;7.30;85.70;;;;;;5015046;28;20209;-73
2023/12/22 08:45:02;;;;;;;13.33;2.10;;;7.40;85.70;;;;;;5016758;28;20231;-73
2023/12/22 08:47:28;;;;;;;10.60;2.97;;;7.50;85.30;;;;;;5013891;28;20189;-74
2023/12/22 08:49:53;;;;;;;7.40;2.30;;;7.50;84.90;;;;;;5015377;28;20506;-74
2023/12/22 08:52:19;;;;;;;12.17;3.43;;;7.60;84.10;;;;;;5024670;28;20188;-74
2023/12/22 08:54:44;;;;;;;7.33;2.80;;;7.70;83.80;;;;;;5019640;28;20189;-75
2023/12/22 08:57:10;;;;;;;10.03;2.80;;;7.80;83.10;;;;;;5017677;28;20845;-73
2023/12/22 08:59:36;;;;;;;7.93;2.40;;;7.90;82.40;;;;;;5012015;28;20178;-72
2023/12/22 09:02:01;;;;;;;8.47;2.87;;;8.00;82.10;;;;;;5015622;28;20277;-73
2023/12/22 09:04:27;;;;;;;10.13;2.33;;;8.00;81.20;;;;;;5014361;28;20313;-74
2023/12/22 09:06:53;;;;;;;11.00;2.50;;;8.10;81.10;;;;;;5005711;28;20507;-73
2023/12/22 09:09:19;;;;;;;6.60;1.97;;;8.10;81.80;;;;;;5007033;28;20421;-73
2023/12/22 09:11:44;;;;;;;12.40;3.27;;;8.10;81.20;;;;;;5017197;28;20183;-73
2023/12/22 09:14:10;;;;;;;9.77;2.37;;;8.20;80.50;;;;;;5019577;28;21599;-72
2023/12/22 09:16:37;;;;;;;5.17;2.30;;;8.20;81.10;;;;;;5013026;28;20208;-73
2023/12/22 09:19:03;;;;;;;9.30;2.10;;;8.20;79.60;;;;;;5019930;28;20235;-72
2023/12/22 09:21:28;;;;;;;11.63;2.20;;;8.30;79.30;;;;;;5013599;28;20468;-73
2023/12/22 09:23:54;;;;;;;11.50;2.13;;;8.30;79.50;;;;;;5014206;28;20436;-73
2023/12/22 09:26:20;;;;;;;11.80;3.33;;;8.40;77.80;;;;;;5015306;28;20649;-75
2023/12/22 09:28:46;;;;;;;12.20;3.40;;;8.40;78.10;;;;;;5014969;28;20209;-72
2023/12/22 09:31:12;;;;;;;6.73;2.87;;;8.50;77.40;;;;;;5006966;28;20825;-71
2023/12/22 09:33:40;;;;;;;9.10;2.53;;;8.50;76.40;;;;;;5010551;28;20774;-72
2023/12/22 09:36:06;;;;;;;13.63;2.70;;;8.50;76.20;;;;;;5012357;28;20429;-72
2023/12/22 09:38:32;;;;;;;17.20;2.80;;;8.60;75.50;;;;;;5014746;28;20965;-71
2023/12/22 09:40:58;;;;;;;8.30;2.70;;;8.60;75.40;;;;;;5005218;28;20958;-74
2023/12/22 09:43:24;;;;;;;12.83;1.73;;;8.60;75.70;;;;;;5008443;28;20576;-71
2023/12/22 09:45:50;;;;;;;17.43;3.67;;;8.60;75.40;;;;;;5012913;28;20432;-72
2023/12/22 09:48:27;;;;;;;20.43;3.67;;;8.70;74.60;;;;;;5015214;28;20189;-72
2023/12/22 09:50:54;;;;;;;8.00;2.53;;;8.80;74.90;;;;;;5000054;28;20469;-72
2023/12/22 09:53:20;;;;;;;15.63;3.00;;;8.80;74.30;;;;;;5015585;28;20624;-72
2023/12/22 09:55:47;;;;;;;13.30;4.37;;;8.80;74.80;;;;;;5018011;28;20471;-72
2023/12/22 09:58:15;;;;;;;14.60;3.10;;;8.80;74.30;;;;;;5017312;28;20460;-72
2023/12/22 10:00:41;;;;;;;18.33;3.00;;;8.80;74.50;;;;;;5016178;28;20461;-73
2023/12/22 10:03:09;;;;;;;14.30;2.90;;;8.80;74.60;;;;;;5022642;28;20970;-73
2023/12/22 10:05:35;;;;;;;18.60;3.93;;;8.90;74.30;;;;;;5022751;28;20413;-73
2023/12/22 10:08:01;;;;;;;14.10;3.07;;;8.90;73.90;;;;;;5024181;28;20949;-71
2023/12/22 10:10:31;;;;;;;14.40;3.03;;;8.90;74.20;;;;;;5005503;28;20237;-72
2023/12/22 10:12:58;;;;;;;11.27;2.77;;;8.90;73.90;;;;;;5018763;28;20435;-75
2023/12/22 10:15:24;;;;;;;12.20;2.97;;;8.90;73.60;;;;;;5020945;28;20832;-74
2023/12/22 10:17:51;;;;;;;18.00;3.43;;;8.90;73.50;;;;;;5021643;28;21052;-73
2023/12/22 10:20:16;;;;;;;10.90;3.00;;;9.00;73.50;;;;;;5010999;28;20456;-73
2023/12/22 10:22:42;;;;;;;12.13;3.20;;;9.00;73.20;;;;;;5015550;28;20546;-76
2023/12/22 10:25:08;;;;;;;11.47;2.60;;;8.90;73.50;;;;;;5007886;28;20820;-76
2023/12/22 10:27:36;;;;;;;9.57;2.83;;;9.00;73.30;;;;;;5020748;28;20177;-73
2023/12/22 10:30:03;;;;;;;9.27;3.50;;;9.00;73.20;;;;;;5006558;28;20497;-74
2023/12/22 10:32:29;;;;;;;8.60;2.50;;;9.00;73.00;;;;;;5014026;28;20423;-73
2023/12/22 10:34:57;;;;;;;15.83;3.20;;;9.00;73.30;;;;;;5013967;28;20434;-74
2023/12/22 10:37:23;;;;;;;6.23;2.47;;;9.00;73.30;;;;;;5006921;28;21008;-75
2023/12/22 10:39:53;;;;;;;9.27;2.50;;;9.10;73.20;;;;;;5003974;28;20476;-74
2023/12/22 10:42:19;;;;;;;15.73;3.13;;;9.10;73.30;;;;;;5014992;28;20429;-75
2023/12/22 10:44:45;;;;;;;11.73;2.40;;;9.00;73.70;;;;;;5017266;28;20442;-76
2023/12/22 10:47:11;;;;;;;14.60;2.50;;;9.10;74.00;;;;;;5020932;28;20263;-78
2023/12/22 10:49:36;;;;;;;11.93;2.90;;;9.10;74.50;;;;;;5016056;28;20664;-76
2023/12/22 10:52:02;;;;;;;10.83;3.47;;;9.10;74.80;;;;;;5017124;28;20198;-77
2023/12/22 10:54:30;;;;;;;16.27;3.10;;;9.10;74.80;;;;;;5017984;28;20386;-77
2023/12/22 10:57:02;;;;;;;7.87;2.30;;;9.10;75.10;;;;;;5014676;28;20220;-77
2023/12/22 10:59:34;;;;;;;7.93;2.80;;;9.10;75.20;;;;;;5019295;28;20444;-78
2023/12/22 11:02:02;;;;;;;10.00;2.00;;;9.00;75.90;;;;;;5027061;28;20444;-76
2023/12/22 11:04:35;;;;;;;10.60;2.80;;;9.00;76.20;;;;;;5029958;28;20419;-76
2023/12/22 11:07:03;;;;;;;5.17;2.53;;;8.90;77.10;;;;;;5028701;28;20928;-77
2023/12/22 11:09:31;;;;;;;3.20;1.20;;;9.00;77.60;;;;;;5027994;28;20432;-76
2023/12/22 11:11:58;;;;;;;4.57;2.10;;;9.00;77.70;;;;;;5015900;28;20516;-76
2023/12/22 11:14:26;;;;;;;4.37;1.57;;;8.90;78.10;;;;;;5027024;28;20494;-76
2023/12/22 11:16:54;;;;;;;5.00;1.67;;;8.80;79.00;;;;;;5018664;28;20460;-77
2023/12/22 11:19:21;;;;;;;10.10;2.27;;;8.80;79.70;;;;;;5034792;28;20452;-76
2023/12/22 11:21:49;;;;;;;6.33;1.43;;;8.60;80.80;;;;;;5020168;28;20437;-77
2023/12/22 11:24:16;;;;;;;8.27;1.60;;;8.60;80.90;;;;;;5018517;28;20448;-75
2023/12/22 11:26:42;;;;;;;6.57;1.60;;;8.50;81.90;;;;;;5022719;28;20449;-76
2023/12/22 11:29:09;;;;;;;6.50;1.53;;;8.40;82.40;;;;;;5019610;28;20420;-76
2023/12/22 11:31:37;;;;;;;5.73;1.47;;;8.40;82.70;;;;;;5011032;28;20918;-77
2023/12/22 11:34:05;;;;;;;10.67;1.73;;;8.30;83.60;;;;;;5013149;28;20435;-76
2023/12/22 11:36:31;;;;;;;3.50;1.57;;;8.20;83.80;;;;;;5026838;28;20532;-78
2023/12/22 11:38:57;;;;;;;3.83;2.20;;;8.20;83.80;;;;;;5014292;28;20509;-76
2023/12/22 11:41:28;;;;;;;5.50;1.73;;;8.20;84.40;;;;;;5013549;28;20468;-77
2023/12/22 11:43:54;;;;;;;3.43;1.50;;;8.10;84.70;;;;;;5017608;28;20196;-76
2023/12/22 11:46:20;;;;;;;3.33;1.33;;;8.10;84.90;;;;;;5022237;28;20483;-76
2023/12/22 11:48:49;;;;;;;3.60;1.70;;;8.10;85.20;;;;;;5022257;28;20429;-77
2023/12/22 11:51:16;;;;;;;4.10;1.50;;;8.00;84.90;;;;;;5014358;28;20696;-76
2023/12/22 11:53:42;;;;;;;2.97;1.40;;;8.00;85.30;;;;;;5026349;28;20435;-77
2023/12/22 11:56:09;;;;;;;4.03;1.53;;;7.90;85.50;;;;;;5017691;28;20425;-75
2023/12/22 11:58:41;;;;;;;6.03;1.80;;;7.90;86.00;;;;;;5014656;28;20596;-76
2023/12/22 12:01:12;;;;;;;3.20;1.43;;;7.90;86.30;;;;;;5009946;28;20460;-74
2023/12/22 12:04:02;;;;;;;5.53;1.57;;;7.80;86.60;;;;;;5006349;28;20418;-75
2023/12/22 12:06:29;;;;;;;9.90;1.60;;;7.80;86.80;;;;;;5014466;28;20459;-73
2023/12/22 12:08:55;;;;;;;4.20;1.70;;;7.80;87.00;;;;;;5015809;28;20432;-74
2023/12/22 12:11:46;;;;;;;2.60;1.47;;;7.80;86.90;;;;;;5009503;28;20488;-74
2023/12/22 12:14:14;;;;;;;2.00;1.10;;;7.70;86.90;;;;;;5018768;28;20551;-74
2023/12/22 12:16:42;;;;;;;8.30;1.40;;;7.80;87.30;;;;;;5002793;28;20468;-75
2023/12/22 12:19:09;;;;;;;1.97;1.23;;;7.80;86.60;;;;;;5014127;28;20416;-71
2023/12/22 12:21:35;;;;;;;4.57;1.30;;;7.90;86.30;;;;;;5015010;28;20464;-73
2023/12/22 12:24:00;;;;;;;2.13;0.97;;;7.90;86.30;;;;;;5015361;28;20578;-75
2023/12/22 12:26:27;;;;;;;5.07;1.47;;;7.90;86.20;;;;;;5016605;28;20240;-73
2023/12/22 12:28:53;;;;;;;3.57;1.20;;;7.90;86.20;;;;;;5017233;28;20220;-73
2023/12/22 12:31:18;;;;;;;4.30;1.00;;;7.90;86.30;;;;;;5009231;28;20464;-75
2023/12/22 12:33:45;;;;;;;3.87;1.47;;;7.90;86.30;;;;;;5013752;28;20596;-73
2023/12/22 12:36:11;;;;;;;3.27;1.37;;;7.90;86.30;;;;;;5008300;28;20182;-73
2023/12/22 12:38:55;;;;;;;4.27;1.10;;;7.90;86.20;;;;;;5015005;28;20874;-75
2023/12/22 12:41:34;;;;;;;2.30;1.37;;;7.90;86.00;;;;;;5011351;28;20484;-75
2023/12/22 12:44:00;;;;;;;2.63;1.47;;;7.90;85.90;;;;;;5013744;28;20452;-75
2023/12/22 12:46:36;;;;;;;2.27;1.57;;;7.90;86.00;;;;;;5009979;28;20447;-73
2023/12/22 12:49:14;;;;;;;1.50;1.10;;;7.90;85.70;;;;;;5019646;28;20468;-73
2023/12/22 12:51:42;;;;;;;3.90;1.13;;;8.00;85.90;;;;;;5013889;28;20490;-73